Time;durP1;ratioP1;P1;durP2;ratioP2;P2;SDS_P1;SDS_P2;PMS_P1;PMS_P2;Temp;Humidity;BMP_temperature;BMP_pressure;BME280_temperature;BME280_humidity;BME280_pressure;Samples;Min_cycle;Max_cycle;Signal;HPM_P1;HPM_P2
2022/07/18 00:05:10;;;;;;;3.47;2.22;;;;;;;18.51;81.47;102187.56;20963109;28;20078;-76
2022/07/18 00:15:12;;;;;;;3.90;2.33;;;;;;;18.17;81.41;102125.25;20963298;28;20053;-76
2022/07/18 00:25:13;;;;;;;3.13;2.28;;;;;;;18.63;81.59;102191.25;20961935;28;20455;-75
2022/07/18 00:35:15;;;;;;;2.95;2.40;;;;;;;18.62;81.63;102188.63;20954424;28;20078;-76
2022/07/18 00:45:17;;;;;;;3.60;2.63;;;;;;;18.61;81.61;102173.44;20963804;28;20044;-76
2022/07/18 00:55:18;;;;;;;3.28;2.45;;;;;;;18.57;81.57;102156.63;20976798;28;20520;-77
2022/07/18 01:05:20;;;;;;;3.90;2.60;;;;;;;18.60;81.53;102163.63;20978648;28;20401;-75
2022/07/18 01:15:21;;;;;;;3.75;2.67;;;;;;;18.60;81.51;102164.50;20978876;28;20052;-76
2022/07/18 01:25:23;;;;;;;4.03;3.10;;;;;;;18.59;81.55;102168.16;20974009;28;20114;-75
2022/07/18 01:35:26;;;;;;;3.25;2.58;;;;;;;18.59;81.48;102145.72;20968259;28;20076;-75
2022/07/18 01:45:27;;;;;;;3.58;2.50;;;;;;;18.57;81.30;102140.44;20974264;28;20049;-76
2022/07/18 01:55:29;;;;;;;3.78;2.70;;;;;;;18.58;81.47;102147.56;20974967;28;20045;-76
2022/07/18 02:05:31;;;;;;;3.55;2.67;;;;;;;18.58;81.31;102135.91;20973072;28;20094;-75
2022/07/18 02:15:32;;;;;;;3.45;2.72;;;;;;;18.57;81.49;102143.13;20972399;28;20114;-76
2022/07/18 02:25:34;;;;;;;3.25;2.55;;;;;;;18.39;81.36;102108.41;20964848;28;20109;-76
2022/07/18 02:35:37;;;;;;;3.08;2.50;;;;;;;18.40;81.15;102115.53;20972405;28;20443;-75
2022/07/18 02:45:38;;;;;;;4.38;3.13;;;;;;;18.55;81.08;102134.25;20969852;28;20044;-76
2022/07/18 02:55:43;;;;;;;3.90;3.17;;;;;;;18.54;81.10;102127.16;20971224;28;20489;-75
2022/07/18 03:05:45;;;;;;;3.97;2.88;;;;;;;18.54;80.92;102113.66;20969912;28;20049;-76
2022/07/18 03:15:47;;;;;;;3.40;2.70;;;;;;;18.50;80.77;102117.56;20967055;28;20136;-76
2022/07/18 03:25:48;;;;;;;3.03;2.63;;;;;;;18.52;80.77;102112.91;20953852;28;20505;-75
2022/07/18 03:35:50;;;;;;;2.95;2.65;;;;;;;18.45;80.53;102090.94;20956127;28;20048;-76
2022/07/18 03:45:51;;;;;;;4.22;2.95;;;;;;;18.52;80.08;102088.66;20891660;28;20076;-76
2022/07/18 03:55:53;;;;;;;4.30;3.38;;;;;;;18.51;79.58;102084.22;20897013;28;20572;-78
2022/07/18 04:05:54;;;;;;;4.60;3.45;;;;;;;18.49;79.04;102076.25;20881625;28;20429;-76
2022/07/18 04:15:56;;;;;;;4.50;3.45;;;;;;;18.48;78.74;102076.34;20881436;28;20409;-76
2022/07/18 04:25:58;;;;;;;8.52;3.70;;;;;;;18.38;79.49;102071.66;20872912;28;20851;-77
2022/07/18 04:35:59;;;;;;;7.18;4.13;;;;;;;18.24;80.35;102017.88;20860764;28;20044;-76
2022/07/18 04:46:01;;;;;;;5.20;3.83;;;;;;;18.33;80.15;102049.56;20852366;28;20048;-76
2022/07/18 04:56:03;;;;;;;5.00;3.67;;;;;;;18.43;80.27;102052.44;20841561;28;20067;-76
2022/07/18 05:06:05;;;;;;;6.60;3.45;;;;;;;18.43;80.48;102071.31;20837893;28;20052;-76
2022/07/18 05:16:06;;;;;;;6.72;3.80;;;;;;;18.37;80.44;102045.66;20865433;28;20070;-76
2022/07/18 05:26:08;;;;;;;5.97;4.20;;;;;;;18.44;79.83;102053.28;20868303;28;20044;-76
2022/07/18 05:36:10;;;;;;;4.75;3.40;;;;;;;18.35;78.89;102034.13;20879501;28;20131;-77
2022/07/18 05:46:11;;;;;;;5.93;3.35;;;;;;;18.44;77.65;102048.78;20868871;28;20048;-80
2022/07/18 05:56:18;;;;;;;6.10;3.97;;;;;;;18.45;77.20;102031.63;20877414;28;20049;-75
2022/07/18 06:06:20;;;;;;;6.75;3.10;;;;;;;18.47;77.77;102010.81;20823755;28;20045;-76
2022/07/18 06:16:21;;;;;;;5.32;3.45;;;;;;;18.45;77.91;101998.41;20785690;28;20533;-76
2022/07/18 06:26:23;;;;;;;6.35;3.28;;;;;;;18.50;78.30;101989.00;20781578;28;20077;-75
2022/07/18 06:36:24;;;;;;;9.32;3.72;;;;;;;18.54;80.00;101997.72;20802797;28;20123;-76
2022/07/18 06:46:26;;;;;;;14.00;4.32;;;;;;;18.59;85.11;102000.94;20771281;28;20131;-77
2022/07/18 06:56:28;;;;;;;11.95;4.10;;;;;;;18.62;89.09;102011.50;20780273;28;21631;-77
2022/07/18 07:06:29;;;;;;;8.45;3.38;;;;;;;18.65;91.42;102010.41;20793862;28;20048;-75
2022/07/18 07:16:31;;;;;;;8.73;2.90;;;;;;;18.55;91.49;101983.25;20856348;28;20500;-77
2022/07/18 07:26:33;;;;;;;7.82;2.95;;;;;;;18.72;89.63;102013.50;20771014;28;20399;-76
2022/07/18 07:36:35;;;;;;;6.43;2.58;;;;;;;18.76;86.93;102023.94;20813939;28;20056;-76
2022/07/18 07:46:36;;;;;;;5.47;2.55;;;;;;;18.90;85.04;102020.22;20851296;28;20041;-76
2022/07/18 07:56:38;;;;;;;5.43;2.60;;;;;;;19.03;84.00;102009.38;20842276;28;20068;-76
2022/07/18 08:06:40;;;;;;;5.30;2.50;;;;;;;18.57;83.01;101927.38;20862881;28;20378;-77
2022/07/18 08:16:41;;;;;;;3.95;2.20;;;;;;;19.03;81.94;101982.41;20833630;28;20042;-77
2022/07/18 08:26:43;;;;;;;3.33;2.00;;;;;;;19.20;81.53;101997.31;20781787;28;20504;-77
2022/07/18 08:36:45;;;;;;;5.13;2.40;;;;;;;19.25;81.35;102002.34;20795135;28;20136;-76
2022/07/18 08:46:51;;;;;;;8.13;1.55;;;;;;;19.29;81.15;101990.34;20788353;28;20509;-77
2022/07/18 08:56:53;;;;;;;5.03;1.88;;;;;;;19.27;81.51;101990.44;20773219;28;20049;-75
2022/07/18 09:06:56;;;;;;;5.18;1.95;;;;;;;19.25;81.76;101984.31;20844623;28;20141;-76
2022/07/18 09:17:23;;;;;;;4.63;1.67;;;;;;;19.23;81.81;101983.56;20790745;28;20145;-76
2022/07/18 09:27:41;;;;;;;4.07;1.83;;;;;;;19.22;81.91;101980.97;20811131;28;20054;-75
2022/07/18 09:37:54;;;;;;;5.28;1.73;;;;;;;19.20;81.58;101978.41;20791320;28;20080;-76
2022/07/18 09:48:01;;;;;;;3.50;1.50;;;;;;;19.10;81.71;101955.81;20883616;28;20079;-75
2022/07/18 09:58:08;;;;;;;4.32;1.40;;;;;;;19.26;81.72;101972.53;20878872;28;20037;-75
2022/07/18 10:08:12;;;;;;;2.67;1.60;;;;;;;19.29;81.50;101971.44;20808937;28;20056;-74
2022/07/18 10:18:15;;;;;;;3.95;1.83;;;;;;;19.26;81.94;101964.44;20793926;28;20045;-75
2022/07/18 10:28:17;;;;;;;3.10;1.63;;;;;;;19.24;82.12;101963.69;20776450;28;20061;-74
2022/07/18 10:38:20;;;;;;;3.20;1.50;;;;;;;19.22;82.54;101960.25;20782084;28;20048;-74
2022/07/18 10:48:37;;;;;;;2.08;1.40;;;;;;;19.21;82.57;101957.66;20786854;28;20735;-75
2022/07/18 10:58:39;;;;;;;3.08;1.60;;;;;;;19.19;82.67;101957.78;20786218;28;20536;-75
2022/07/18 11:08:41;;;;;;;1.95;1.17;;;;;;;19.07;82.51;101942.56;20804047;28;20037;-74
2022/07/18 11:18:46;;;;;;;3.17;1.52;;;;;;;19.19;82.68;101951.50;20782473;28;20045;-76
2022/07/18 11:28:48;;;;;;;1.70;1.20;;;;;;;19.17;82.58;101932.75;20821638;28;20171;-75
2022/07/18 11:38:52;;;;;;;1.73;1.35;;;;;;;19.16;82.80;101922.94;20811534;28;20371;-76
2022/07/18 11:49:02;;;;;;;8.43;1.42;;;;;;;19.09;82.57;101903.66;20789067;28;20065;-75
2022/07/18 11:59:04;;;;;;;1.50;1.40;;;;;;;19.14;82.75;101900.59;20777167;28;20044;-76
2022/07/18 12:09:06;;;;;;;1.92;1.23;;;;;;;19.11;83.34;101892.75;20834520;28;20037;-76
2022/07/18 12:19:10;;;;;;;2.15;1.50;;;;;;;19.16;83.44;101898.66;20818490;28;20425;-76
2022/07/18 12:29:19;;;;;;;5.53;1.65;;;;;;;19.19;83.70;101893.00;20838052;28;20102;-76
2022/07/18 12:39:27;;;;;;;2.72;1.60;;;;;;;19.23;83.44;101877.44;20859549;28;20143;-75
2022/07/18 12:49:29;;;;;;;2.70;1.42;;;;;;;19.17;82.91;101873.38;20866873;28;20053;-75
2022/07/18 12:59:30;;;;;;;3.53;1.77;;;;;;;19.25;82.91;101868.22;20881085;28;20114;-75
2022/07/18 13:09:32;;;;;;;3.83;1.45;;;;;;;19.26;82.76;101855.59;20891101;28;20493;-75
2022/07/18 13:19:34;;;;;;;4.05;1.73;;;;;;;19.26;82.67;101847.50;20859047;28;21797;-75
2022/07/18 13:29:35;;;;;;;4.13;1.70;;;;;;;19.25;82.66;101843.91;20868871;28;20053;-75
2022/07/18 13:39:37;;;;;;;2.70;1.48;;;;;;;19.24;82.81;101834.09;20823233;28;20046;-76
2022/07/18 13:49:39;;;;;;;5.35;2.20;;;;;;;19.24;83.16;101839.50;20795906;28;20053;-76
2022/07/18 13:59:40;;;;;;;3.63;1.70;;;;;;;19.24;83.06;101823.31;20779179;28;20497;-76
2022/07/18 14:09:42;;;;;;;2.70;1.70;;;;;;;19.26;83.58;101815.94;20860664;28;20048;-76
2022/07/18 14:19:43;;;;;;;4.20;1.55;;;;;;;19.30;83.62;101805.78;20853970;28;20194;-76
2022/07/18 14:29:45;;;;;;;5.07;1.80;;;;;;;19.26;83.63;101797.03;20782816;28;20061;-75
2022/07/18 14:39:46;;;;;;;5.28;2.22;;;;;;;19.23;83.69;101794.59;20802076;28;20104;-76
2022/07/18 14:49:55;;;;;;;4.13;1.30;;;;;;;19.18;83.67;101788.72;20826802;28;20119;-76
2022/07/18 14:59:57;;;;;;;3.65;1.60;;;;;;;19.14;83.45;101789.94;20779019;28;20063;-76
2022/07/18 15:09:59;;;;;;;2.75;1.75;;;;;;;19.12;83.50;101786.50;20771839;28;20614;-76
2022/07/18 15:20:01;;;;;;;4.45;1.70;;;;;;;19.09;83.62;101776.81;20776519;28;20045;-76
2022/07/18 15:30:03;;;;;;;3.10;1.58;;;;;;;19.08;83.64;101758.91;20808589;28;20197;-76
2022/07/18 15:40:25;;;;;;;3.35;1.80;;;;;;;18.94;83.39;101734.84;20773187;28;20511;-75
2022/07/18 15:50:26;;;;;;;2.63;1.70;;;;;;;19.05;83.45;101734.84;20838590;28;20045;-76
2022/07/18 16:00:28;;;;;;;2.40;1.50;;;;;;;19.03;83.24;101727.88;20856759;28;20595;-75
2022/07/18 16:10:29;;;;;;;3.70;1.35;;;;;;;19.02;83.33;101721.59;20852783;28;20052;-76
2022/07/18 16:20:32;;;;;;;3.58;1.67;;;;;;;18.87;83.36;101688.59;20847742;28;20674;-76
2022/07/18 16:30:34;;;;;;;2.22;1.67;;;;;;;19.02;83.66;101718.06;20855423;28;20563;-75
2022/07/18 16:40:36;;;;;;;2.17;1.50;;;;;;;18.87;83.79;101683.19;20864852;28;20048;-77
2022/07/18 16:50:39;;;;;;;3.65;1.90;;;;;;;19.02;83.63;101688.38;20850613;28;20489;-76
2022/07/18 17:00:41;;;;;;;5.20;1.55;;;;;;;19.02;83.65;101688.38;20843571;28;20052;-76
2022/07/18 17:10:43;;;;;;;2.30;1.40;;;;;;;19.03;83.41;101679.31;20858533;28;20061;-76
2022/07/18 17:20:47;;;;;;;2.65;1.55;;;;;;;19.03;83.38;101679.31;20840255;28;20409;-76
2022/07/18 17:30:49;;;;;;;2.15;1.65;;;;;;;18.94;83.40;101665.53;20873494;28;20116;-77
2022/07/18 17:40:51;;;;;;;2.45;1.65;;;;;;;19.04;83.60;101683.72;20863648;28;20053;-76
2022/07/18 17:50:53;;;;;;;2.40;1.35;;;;;;;18.91;83.69;101671.16;20867064;28;20102;-76
2022/07/18 18:00:54;;;;;;;2.60;1.60;;;;;;;18.98;83.99;101672.41;20877431;28;20103;-76
2022/07/18 18:10:56;;;;;;;2.97;1.48;;;;;;;19.00;85.09;101675.00;20843383;28;20057;-76
2022/07/18 18:20:59;;;;;;;2.83;1.73;;;;;;;19.08;85.95;101669.00;20789352;28;20203;-76
2022/07/18 18:31:00;;;;;;;3.75;1.63;;;;;;;19.09;85.98;101665.31;20807744;28;20069;-76
2022/07/18 18:41:02;;;;;;;4.53;2.28;;;;;;;19.09;86.82;101665.31;20867896;28;20382;-76
2022/07/18 18:51:04;;;;;;;2.15;1.80;;;;;;;19.09;88.13;101657.22;20828650;28;20045;-76
2022/07/18 19:01:05;;;;;;;3.80;2.05;;;;;;;19.08;88.49;101655.50;20831623;28;20184;-75
2022/07/18 19:11:07;;;;;;;3.42;1.90;;;;;;;19.08;88.33;101663.59;20808537;28;20065;-76
2022/07/18 19:21:09;;;;;;;3.83;1.98;;;;;;;19.07;88.30;101665.41;20822045;28;20107;-76
2022/07/18 19:31:10;;;;;;;3.92;1.90;;;;;;;18.97;88.38;101654.50;20798692;28;20059;-76
2022/07/18 19:41:12;;;;;;;3.47;1.80;;;;;;;19.05;88.45;101667.38;20801715;28;20075;-75
2022/07/18 19:51:14;;;;;;;2.85;1.70;;;;;;;19.03;88.34;101663.13;20801432;28;20433;-76
2022/07/18 20:01:15;;;;;;;3.38;1.90;;;;;;;19.05;88.44;101682.75;20828715;28;20049;-75
2022/07/18 20:11:17;;;;;;;3.42;1.60;;;;;;;18.98;88.40;101675.09;20882299;28;20103;-75
2022/07/18 20:21:19;;;;;;;3.05;1.77;;;;;;;19.04;88.58;101681.88;20881616;28;20139;-76
2022/07/18 20:31:21;;;;;;;3.38;1.75;;;;;;;18.90;88.90;101669.44;20881259;28;20048;-76
2022/07/18 20:41:27;;;;;;;3.05;1.90;;;;;;;19.03;88.85;101690.94;20881484;28;20081;-76
2022/07/18 20:51:29;;;;;;;2.20;1.67;;;;;;;18.99;88.87;101678.69;20878630;28;20041;-75
2022/07/18 21:01:30;;;;;;;1.95;1.58;;;;;;;19.03;88.94;101679.31;20880220;28;20409;-76
2022/07/18 21:11:32;;;;;;;2.03;1.50;;;;;;;19.03;89.18;101673.91;20892599;28;20051;-75
2022/07/18 21:21:35;;;;;;;3.20;1.83;;;;;;;19.00;89.08;101675.00;20895534;28;20044;-76
2022/07/18 21:31:36;;;;;;;2.05;1.48;;;;;;;19.01;89.08;101671.31;20875766;28;20060;-76
2022/07/18 21:41:38;;;;;;;2.45;1.58;;;;;;;19.01;89.22;101662.38;20892758;28;20581;-76
2022/07/18 21:51:39;;;;;;;2.17;1.50;;;;;;;19.01;88.93;101659.69;20893209;28;20102;-76
2022/07/18 22:01:41;;;;;;;3.63;1.75;;;;;;;18.91;89.08;101654.97;20891692;28;20057;-75
2022/07/18 22:11:43;;;;;;;3.85;2.17;;;;;;;19.00;89.26;101648.03;20892261;28;20053;-75
2022/07/18 22:21:44;;;;;;;3.30;2.10;;;;;;;18.99;89.13;101644.44;20890358;28;20049;-76
2022/07/18 22:31:47;;;;;;;2.08;1.75;;;;;;;18.98;89.28;101640.03;20888058;28;20056;-76
2022/07/18 22:41:49;;;;;;;2.13;1.70;;;;;;;18.98;89.07;101634.63;20886863;28;20581;-76
2022/07/18 22:51:51;;;;;;;1.85;1.73;;;;;;;18.97;89.36;101632.91;20886549;28;20049;-75
2022/07/18 23:01:53;;;;;;;2.13;1.92;;;;;;;18.91;89.49;101628.00;20887506;28;20485;-76
2022/07/18 23:11:55;;;;;;;2.75;1.88;;;;;;;18.93;89.45;101631.44;20885014;28;20090;-75
2022/07/18 23:21:56;;;;;;;2.70;1.92;;;;;;;18.97;89.49;101641.00;20886630;28;20040;-75
2022/07/18 23:31:58;;;;;;;2.67;2.03;;;;;;;18.96;89.68;101641.97;20882666;28;20049;-76
2022/07/18 23:42:00;;;;;;;2.83;2.00;;;;;;;18.96;89.44;101631.19;20883574;28;20098;-76
2022/07/18 23:52:02;;;;;;;3.83;1.77;;;;;;;18.96;89.79;101644.66;20881016;28;20417;-76
